Time;durP1;ratioP1;P1;durP2;ratioP2;P2;SDS_P1;SDS_P2;PMS_P1;PMS_P2;Temp;Humidity;BMP_temperature;BMP_pressure;BME280_temperature;BME280_humidity;BME280_pressure;Samples;Min_cycle;Max_cycle;Signal;HPM_P1;HPM_P2
2023/09/17 00:00:09;;;;;;;6.70;4.60;;;;;;;;;;110312;267;39931;-37
2023/09/17 00:03:03;;;;;;;;;;;;;;;;;;110312;268;48543;-37
2023/09/17 00:05:38;;;;;;;7.20;5.00;;;;;;;;;;110377;267;41834;-37
2023/09/17 00:08:14;;;;;;;6.30;4.80;;;;;;;;;;110362;267;37593;-37
2023/09/17 00:10:52;;;;;;;6.20;4.80;;;;;;;;;;110339;267;39847;-38
2023/09/17 00:13:25;;;;;;;6.30;4.80;;;;;;;;;;110333;268;42808;-37
2023/09/17 00:16:00;;;;;;;6.90;5.10;;;;;;;;;;110355;267;42203;-37
2023/09/17 00:18:34;;;;;;;6.90;4.90;;;;;;;;;;110337;267;38656;-37
2023/09/17 00:21:08;;;;;;;7.00;4.80;;;;;;;;;;110316;267;41783;-37
2023/09/17 00:23:43;;;;;;;6.50;5.00;;;;;;;;;;110328;267;48945;-37
2023/09/17 00:26:17;;;;;;;7.30;5.00;;;;;;;;;;110326;268;43131;-36
2023/09/17 00:28:52;;;;;;;7.10;4.60;;;;;;;;;;110315;268;39797;-36
2023/09/17 00:31:25;;;;;;;6.50;4.90;;;;;;;;;;110185;267;39598;-37
2023/09/17 00:33:59;;;;;;;6.80;4.80;;;;;;;;;;110236;267;50540;-37
2023/09/17 00:36:34;;;;;;;7.10;5.10;;;;;;;;;;110247;267;42003;-36
2023/09/17 00:39:09;;;;;;;7.00;5.10;;;;;;;;;;110296;267;38720;-36
2023/09/17 00:41:43;;;;;;;6.60;5.20;;;;;;;;;;110263;267;40967;-37
2023/09/17 00:44:19;;;;;;;7.20;5.50;;;;;;;;;;110336;267;49027;-37
2023/09/17 00:46:54;;;;;;;6.60;5.10;;;;;;;;;;110348;267;43293;-37
2023/09/17 00:49:28;;;;;;;7.50;5.50;;;;;;;;;;110386;267;38656;-37
2023/09/17 00:52:04;;;;;;;6.80;5.00;;;;;;;;;;110296;268;39598;-37
2023/09/17 00:54:39;;;;;;;7.00;5.30;;;;;;;;;;110353;267;48836;-37
2023/09/17 00:57:15;;;;;;;7.40;5.30;;;;;;;;;;110340;267;41723;-37
2023/09/17 00:59:52;;;;;;;7.10;5.40;;;;;;;;;;110372;267;39821;-37
2023/09/17 01:02:27;;;;;;;7.10;5.30;;;;;;;;;;110261;267;39707;-38
2023/09/17 01:05:04;;;;;;;6.90;5.00;;;;;;;;;;110252;267;175649;-37
2023/09/17 01:07:38;;;;;;;7.00;5.60;;;;;;;;;;110343;267;42013;-37
2023/09/17 01:10:13;;;;;;;6.70;5.60;;;;;;;;;;110379;267;40065;-37
2023/09/17 01:12:48;;;;;;;6.40;4.90;;;;;;;;;;110328;267;39770;-37
2023/09/17 01:15:22;;;;;;;7.00;5.30;;;;;;;;;;110342;268;42937;-37
2023/09/17 01:17:57;;;;;;;8.00;5.30;;;;;;;;;;110336;267;42020;-37
2023/09/17 01:20:36;;;;;;;7.00;5.40;;;;;;;;;;110357;267;38841;-38
2023/09/17 01:23:21;;;;;;;6.60;4.90;;;;;;;;;;110343;267;39470;-37
2023/09/17 01:26:01;;;;;;;6.90;4.90;;;;;;;;;;110341;267;42817;-37
2023/09/17 01:28:36;;;;;;;7.40;5.20;;;;;;;;;;110335;267;43384;-37
2023/09/17 01:31:12;;;;;;;7.10;5.20;;;;;;;;;;110383;267;39946;-37
2023/09/17 01:33:47;;;;;;;7.40;5.40;;;;;;;;;;110303;267;39578;-37
2023/09/17 01:36:33;;;;;;;6.90;5.30;;;;;;;;;;110378;268;42984;-37
2023/09/17 01:39:13;;;;;;;7.10;5.50;;;;;;;;;;110313;267;42958;-36
2023/09/17 01:41:49;;;;;;;7.80;5.60;;;;;;;;;;110387;267;38893;-37
2023/09/17 01:44:24;;;;;;;7.40;5.40;;;;;;;;;;110340;267;39651;-37
2023/09/17 01:47:00;;;;;;;6.70;5.50;;;;;;;;;;110344;268;44174;-37
2023/09/17 01:49:35;;;;;;;7.20;5.30;;;;;;;;;;110349;267;43285;-37
2023/09/17 01:52:10;;;;;;;7.50;5.50;;;;;;;;;;110381;267;38832;-37
2023/09/17 01:54:46;;;;;;;7.10;5.40;;;;;;;;;;110325;267;39301;-36
2023/09/17 01:57:21;;;;;;;7.50;5.40;;;;;;;;;;110350;267;42835;-37
2023/09/17 01:59:55;;;;;;;7.50;5.20;;;;;;;;;;110278;268;41995;-37
2023/09/17 02:02:28;;;;;;;7.80;5.20;;;;;;;;;;110306;267;38815;-37
2023/09/17 02:05:04;;;;;;;6.40;5.40;;;;;;;;;;110294;267;39713;-37
2023/09/17 02:07:37;;;;;;;7.20;5.50;;;;;;;;;;110322;267;43991;-38
2023/09/17 02:10:16;;;;;;;6.80;5.30;;;;;;;;;;110355;267;43195;-37
2023/09/17 02:12:51;;;;;;;7.40;5.20;;;;;;;;;;110335;268;39885;-37
2023/09/17 02:15:25;;;;;;;6.90;5.00;;;;;;;;;;110198;267;175626;-38
2023/09/17 02:18:03;;;;;;;6.60;5.20;;;;;;;;;;110351;267;42936;-42
2023/09/17 02:20:39;;;;;;;7.00;5.10;;;;;;;;;;110327;267;42195;-37
2023/09/17 02:23:13;;;;;;;7.00;5.40;;;;;;;;;;110360;267;39940;-37
2023/09/17 02:25:49;;;;;;;6.70;5.20;;;;;;;;;;110357;267;39777;-37
2023/09/17 02:28:24;;;;;;;6.60;4.90;;;;;;;;;;110386;267;42952;-37
2023/09/17 02:31:00;;;;;;;7.00;5.10;;;;;;;;;;110372;268;43167;-37
2023/09/17 02:33:35;;;;;;;6.80;5.20;;;;;;;;;;110372;267;39051;-37
2023/09/17 02:36:09;;;;;;;6.80;5.30;;;;;;;;;;110297;267;39567;-37
2023/09/17 02:38:45;;;;;;;7.70;5.10;;;;;;;;;;110350;267;44194;-37
2023/09/17 02:41:21;;;;;;;7.60;5.00;;;;;;;;;;110346;267;42219;-37
2023/09/17 02:43:59;;;;;;;7.70;5.60;;;;;;;;;;110316;267;39798;-37
2023/09/17 02:46:33;;;;;;;6.70;5.10;;;;;;;;;;110309;268;40651;-37
2023/09/17 02:49:06;;;;;;;6.80;5.00;;;;;;;;;;110391;268;43038;-37
2023/09/17 02:51:40;;;;;;;6.50;4.90;;;;;;;;;;110347;267;43201;-37
2023/09/17 02:54:13;;;;;;;7.10;5.20;;;;;;;;;;110342;267;38756;-37
2023/09/17 02:56:47;;;;;;;6.40;4.90;;;;;;;;;;110290;268;39594;-37
2023/09/17 02:59:21;;;;;;;7.10;5.00;;;;;;;;;;110345;268;42794;-37
2023/09/17 03:01:55;;;;;;;6.60;5.00;;;;;;;;;;110342;267;42361;-37
2023/09/17 03:04:33;;;;;;;6.60;5.50;;;;;;;;;;110385;267;38978;-37
2023/09/17 03:07:07;;;;;;;7.10;5.20;;;;;;;;;;109646;268;895680;-37
2023/09/17 03:09:42;;;;;;;6.70;4.90;;;;;;;;;;110357;267;42519;-37
2023/09/17 03:12:18;;;;;;;8.60;4.80;;;;;;;;;;110369;268;43263;-37
2023/09/17 03:14:53;;;;;;;7.00;5.00;;;;;;;;;;110383;267;38868;-38
2023/09/17 03:17:27;;;;;;;6.80;5.00;;;;;;;;;;110322;267;45185;-37
2023/09/17 03:20:09;;;;;;;7.00;5.00;;;;;;;;;;110339;268;43070;-37
2023/09/17 03:22:42;;;;;;;6.70;5.20;;;;;;;;;;110346;267;41981;-37
2023/09/17 03:25:16;;;;;;;6.90;5.10;;;;;;;;;;110357;260;38700;-37
2023/09/17 03:27:53;;;;;;;6.80;4.90;;;;;;;;;;110298;268;40931;-37
2023/09/17 03:30:29;;;;;;;7.90;5.20;;;;;;;;;;110337;267;43093;-37
2023/09/17 03:33:03;;;;;;;7.70;5.10;;;;;;;;;;110334;267;43177;-37
2023/09/17 03:35:39;;;;;;;7.20;5.50;;;;;;;;;;110152;268;175074;-37
2023/09/17 03:38:13;;;;;;;7.20;5.10;;;;;;;;;;110317;267;39951;-37
2023/09/17 03:40:46;;;;;;;7.20;5.10;;;;;;;;;;110294;268;42756;-37
2023/09/17 03:43:20;;;;;;;7.00;5.10;;;;;;;;;;110346;267;41934;-37
2023/09/17 03:45:53;;;;;;;6.20;4.70;;;;;;;;;;110324;267;38647;-37
2023/09/17 03:48:28;;;;;;;7.10;5.60;;;;;;;;;;110405;267;39689;-37
2023/09/17 03:51:02;;;;;;;7.00;5.10;;;;;;;;;;110379;267;42789;-38
2023/09/17 03:53:37;;;;;;;7.30;5.30;;;;;;;;;;110365;268;42051;-38
2023/09/17 03:56:12;;;;;;;7.30;5.30;;;;;;;;;;110328;267;38698;-37
2023/09/17 03:58:47;;;;;;;6.60;5.20;;;;;;;;;;110230;268;40022;-37
2023/09/17 04:01:22;;;;;;;7.20;5.10;;;;;;;;;;110388;267;42779;-37
2023/09/17 04:03:55;;;;;;;7.40;5.40;;;;;;;;;;110343;267;42223;-37
2023/09/17 04:06:31;;;;;;;6.50;5.10;;;;;;;;;;110318;268;39884;-37
2023/09/17 04:09:09;;;;;;;6.90;5.30;;;;;;;;;;110336;267;39606;-37
2023/09/17 04:11:44;;;;;;;6.90;5.20;;;;;;;;;;110360;267;44155;-37
2023/09/17 04:14:18;;;;;;;7.70;5.60;;;;;;;;;;110349;267;42038;-37
2023/09/17 04:16:51;;;;;;;7.20;5.30;;;;;;;;;;110326;267;39015;-37
2023/09/17 04:19:26;;;;;;;8.30;5.70;;;;;;;;;;110342;267;39732;-37
2023/09/17 04:22:02;;;;;;;7.00;5.30;;;;;;;;;;110380;267;42896;-37
2023/09/17 04:24:38;;;;;;;6.60;5.20;;;;;;;;;;110351;267;42034;-37
2023/09/17 04:27:13;;;;;;;7.10;5.80;;;;;;;;;;110294;267;38703;-37
2023/09/17 04:29:46;;;;;;;6.80;5.20;;;;;;;;;;110375;267;39948;-37
2023/09/17 04:32:21;;;;;;;7.90;5.60;;;;;;;;;;110356;267;42888;-37
2023/09/17 04:34:56;;;;;;;7.20;5.30;;;;;;;;;;110326;268;42388;-37
2023/09/17 04:37:29;;;;;;;7.80;5.70;;;;;;;;;;110298;267;38702;-37
2023/09/17 04:40:08;;;;;;;6.90;5.20;;;;;;;;;;110312;268;39692;-37
2023/09/17 04:42:45;;;;;;;7.40;5.30;;;;;;;;;;110369;267;43903;-37
2023/09/17 04:45:34;;;;;;;7.70;5.80;;;;;;;;;;110403;267;42732;-38
2023/09/17 04:48:09;;;;;;;7.10;5.30;;;;;;;;;;110333;267;40978;-37
2023/09/17 04:50:44;;;;;;;7.10;5.50;;;;;;;;;;110409;267;39659;-37
2023/09/17 04:53:22;;;;;;;8.30;5.80;;;;;;;;;;110367;267;42785;-37
2023/09/17 04:55:56;;;;;;;7.50;5.60;;;;;;;;;;110361;267;42213;-38
2023/09/17 04:58:29;;;;;;;6.90;5.30;;;;;;;;;;110316;267;38976;-37
2023/09/17 05:01:04;;;;;;;7.80;5.80;;;;;;;;;;110393;267;39739;-37
2023/09/17 05:03:41;;;;;;;6.90;5.50;;;;;;;;;;110345;267;42992;-37
2023/09/17 05:06:15;;;;;;;7.60;5.50;;;;;;;;;;110386;268;42106;-37
2023/09/17 05:08:48;;;;;;;7.40;5.60;;;;;;;;;;110316;267;38636;-37
2023/09/17 05:11:22;;;;;;;7.10;5.20;;;;;;;;;;110363;268;40618;-38
2023/09/17 05:13:57;;;;;;;7.20;5.40;;;;;;;;;;110385;267;42795;-37
2023/09/17 05:16:32;;;;;;;7.40;5.40;;;;;;;;;;110377;267;41762;-37
2023/09/17 05:19:06;;;;;;;6.60;5.40;;;;;;;;;;110176;268;175606;-37
2023/09/17 05:21:39;;;;;;;7.20;5.80;;;;;;;;;;110332;267;39290;-37
2023/09/17 05:24:14;;;;;;;7.40;5.70;;;;;;;;;;110316;268;42799;-37
2023/09/17 05:26:47;;;;;;;7.40;5.70;;;;;;;;;;110402;267;44123;-37
2023/09/17 05:29:21;;;;;;;6.80;5.40;;;;;;;;;;110308;267;39631;-37
2023/09/17 05:31:56;;;;;;;7.30;5.50;;;;;;;;;;110358;268;39605;-37
2023/09/17 05:34:29;;;;;;;7.70;5.70;;;;;;;;;;110368;267;42797;-37
2023/09/17 05:37:03;;;;;;;7.40;5.40;;;;;;;;;;110366;268;41771;-37
2023/09/17 05:39:36;;;;;;;7.80;5.50;;;;;;;;;;110326;267;38492;-37
2023/09/17 05:42:10;;;;;;;7.50;5.70;;;;;;;;;;110352;267;40807;-37
2023/09/17 05:44:44;;;;;;;7.40;5.50;;;;;;;;;;110341;267;42916;-37
2023/09/17 05:47:17;;;;;;;7.60;5.70;;;;;;;;;;110376;268;42031;-37
2023/09/17 05:49:51;;;;;;;7.70;5.60;;;;;;;;;;110342;267;38959;-38
2023/09/17 05:52:26;;;;;;;7.50;5.70;;;;;;;;;;110406;267;40467;-37
2023/09/17 05:55:00;;;;;;;7.00;5.50;;;;;;;;;;110325;267;42473;-37
2023/09/17 05:57:34;;;;;;;7.60;5.70;;;;;;;;;;110359;267;42096;-38
2023/09/17 06:00:10;;;;;;;7.10;5.80;;;;;;;;;;110289;267;38904;-37
2023/09/17 06:02:44;;;;;;;7.60;6.00;;;;;;;;;;110373;267;39561;-37
2023/09/17 06:05:18;;;;;;;8.20;6.20;;;;;;;;;;110349;267;43451;-37
2023/09/17 06:07:52;;;;;;;8.00;6.00;;;;;;;;;;110393;268;43679;-37
2023/09/17 06:10:26;;;;;;;8.60;6.40;;;;;;;;;;110328;267;38422;-37
2023/09/17 06:12:59;;;;;;;7.50;6.10;;;;;;;;;;110349;267;39626;-37
2023/09/17 06:15:33;;;;;;;8.00;6.20;;;;;;;;;;110236;267;195956;-37
2023/09/17 06:18:07;;;;;;;8.30;6.00;;;;;;;;;;110344;267;41977;-37
2023/09/17 06:20:41;;;;;;;7.50;5.80;;;;;;;;;;110351;267;38535;-37
2023/09/17 06:23:14;;;;;;;8.10;6.00;;;;;;;;;;110385;267;39758;-37
2023/09/17 06:25:49;;;;;;;8.30;6.00;;;;;;;;;;110367;267;42768;-37
2023/09/17 06:28:24;;;;;;;7.50;5.80;;;;;;;;;;110366;267;42030;-37
2023/09/17 06:30:57;;;;;;;7.80;6.10;;;;;;;;;;109687;268;893301;-38
2023/09/17 06:33:31;;;;;;;7.90;5.60;;;;;;;;;;110391;267;39609;-37
2023/09/17 06:36:06;;;;;;;7.40;5.70;;;;;;;;;;110345;267;42773;-37
2023/09/17 06:38:40;;;;;;;8.20;6.10;;;;;;;;;;110374;267;42168;-37
2023/09/17 06:41:17;;;;;;;7.60;5.90;;;;;;;;;;110308;267;38783;-37
2023/09/17 06:43:51;;;;;;;8.20;6.50;;;;;;;;;;110365;268;39637;-37
2023/09/17 06:46:27;;;;;;;7.90;6.10;;;;;;;;;;110369;267;44232;-37
2023/09/17 06:49:00;;;;;;;7.80;6.30;;;;;;;;;;110333;267;43095;-37
2023/09/17 06:51:34;;;;;;;7.70;6.20;;;;;;;;;;110316;267;39930;-37
2023/09/17 06:54:08;;;;;;;7.70;5.60;;;;;;;;;;110348;267;39564;-38
2023/09/17 06:56:41;;;;;;;8.40;6.40;;;;;;;;;;110283;267;42893;-37
2023/09/17 06:59:17;;;;;;;8.00;6.00;;;;;;;;;;110311;267;42137;-37
2023/09/17 07:01:51;;;;;;;7.80;6.20;;;;;;;;;;110275;267;45822;-37
2023/09/17 07:04:25;;;;;;;7.50;6.00;;;;;;;;;;110300;267;39315;-37
2023/09/17 07:07:00;;;;;;;7.80;6.40;;;;;;;;;;110273;267;44029;-37
2023/09/17 07:09:39;;;;;;;9.50;6.30;;;;;;;;;;110243;267;42352;-37
2023/09/17 07:12:12;;;;;;;9.20;6.40;;;;;;;;;;110383;267;44505;-37
2023/09/17 07:14:46;;;;;;;7.30;5.90;;;;;;;;;;110353;267;40493;-37
2023/09/17 07:17:20;;;;;;;7.80;6.50;;;;;;;;;;110338;267;42744;-37
2023/09/17 07:19:54;;;;;;;9.10;6.60;;;;;;;;;;110310;267;42245;-37
2023/09/17 07:22:28;;;;;;;8.40;6.70;;;;;;;;;;110240;267;45594;-37
2023/09/17 07:25:04;;;;;;;8.60;6.30;;;;;;;;;;110269;268;39397;-38
2023/09/17 07:27:43;;;;;;;8.30;6.50;;;;;;;;;;110289;267;42697;-38
2023/09/17 07:30:17;;;;;;;8.10;6.70;;;;;;;;;;110262;268;41993;-38
2023/09/17 07:32:51;;;;;;;7.90;6.30;;;;;;;;;;110308;267;39960;-37
2023/09/17 07:35:25;;;;;;;8.60;7.00;;;;;;;;;;110292;267;39554;-37
2023/09/17 07:37:59;;;;;;;8.30;6.50;;;;;;;;;;110278;267;43063;-37
2023/09/17 07:40:33;;;;;;;7.80;6.40;;;;;;;;;;110233;267;42266;-37
2023/09/17 07:43:07;;;;;;;7.60;6.10;;;;;;;;;;110285;267;47012;-37
2023/09/17 07:45:41;;;;;;;8.50;6.20;;;;;;;;;;110321;267;39831;-37
2023/09/17 07:48:14;;;;;;;7.90;6.00;;;;;;;;;;110274;267;42969;-37
2023/09/17 07:50:57;;;;;;;8.10;6.40;;;;;;;;;;110255;267;42172;-38
2023/09/17 07:53:32;;;;;;;8.00;6.30;;;;;;;;;;110339;267;46221;-38
2023/09/17 07:56:06;;;;;;;7.60;6.10;;;;;;;;;;110334;267;40630;-38
2023/09/17 07:58:39;;;;;;;7.80;6.40;;;;;;;;;;110288;267;44349;-38
2023/09/17 08:01:14;;;;;;;9.00;6.30;;;;;;;;;;110287;267;43185;-38
2023/09/17 08:03:51;;;;;;;8.30;6.40;;;;;;;;;;110297;267;45261;-38
2023/09/17 08:06:25;;;;;;;8.40;6.40;;;;;;;;;;110308;267;39725;-38
2023/09/17 08:09:00;;;;;;;7.80;6.30;;;;;;;;;;110364;267;44317;-38
2023/09/17 08:11:34;;;;;;;7.70;6.30;;;;;;;;;;110298;267;41994;-37
2023/09/17 08:14:07;;;;;;;8.20;6.70;;;;;;;;;;110214;267;198126;-39
2023/09/17 08:16:41;;;;;;;9.20;6.80;;;;;;;;;;110332;268;39571;-38
2023/09/17 08:19:15;;;;;;;8.40;6.80;;;;;;;;;;110327;267;42826;-38
2023/09/17 08:21:49;;;;;;;8.50;6.90;;;;;;;;;;110308;268;42779;-38
2023/09/17 08:24:25;;;;;;;8.60;7.10;;;;;;;;;;110333;267;44744;-38
2023/09/17 08:27:02;;;;;;;9.50;7.00;;;;;;;;;;110323;267;39627;-38
2023/09/17 08:29:36;;;;;;;9.40;6.80;;;;;;;;;;110317;267;42668;-36
2023/09/17 08:32:11;;;;;;;8.90;7.00;;;;;;;;;;110297;268;42181;-36
2023/09/17 08:34:44;;;;;;;9.70;7.30;;;;;;;;;;110334;267;46139;-36
2023/09/17 08:37:20;;;;;;;8.30;6.90;;;;;;;;;;110333;267;39874;-36
2023/09/17 08:39:54;;;;;;;8.90;7.50;;;;;;;;;;110315;267;42523;-38
2023/09/17 08:42:31;;;;;;;9.00;7.00;;;;;;;;;;110262;267;41766;-38
2023/09/17 08:45:09;;;;;;;8.20;6.90;;;;;;;;;;110281;268;44898;-37
2023/09/17 08:47:45;;;;;;;8.40;7.00;;;;;;;;;;110325;268;40995;-38
2023/09/17 08:50:20;;;;;;;8.70;7.20;;;;;;;;;;110353;268;44226;-38
2023/09/17 08:52:59;;;;;;;8.60;6.70;;;;;;;;;;110328;267;41925;-38
2023/09/17 08:55:34;;;;;;;8.80;7.10;;;;;;;;;;110342;267;39981;-38
2023/09/17 08:58:16;;;;;;;9.80;7.40;;;;;;;;;;110233;267;192732;-38
2023/09/17 09:00:55;;;;;;;9.30;6.70;;;;;;;;;;110361;267;42797;-38
2023/09/17 09:03:33;;;;;;;8.50;6.80;;;;;;;;;;110304;267;42231;-38
2023/09/17 09:06:09;;;;;;;7.90;6.60;;;;;;;;;;110380;267;39958;-36
2023/09/17 09:08:47;;;;;;;9.70;7.30;;;;;;;;;;110334;267;39704;-38
2023/09/17 09:11:22;;;;;;;8.50;6.90;;;;;;;;;;110314;267;42818;-36
2023/09/17 09:13:56;;;;;;;10.00;7.10;;;;;;;;;;110269;268;42042;-38
2023/09/17 09:16:32;;;;;;;9.20;6.90;;;;;;;;;;110311;267;39979;-38
2023/09/17 09:19:07;;;;;;;8.60;7.00;;;;;;;;;;110252;267;175520;-38
2023/09/17 09:21:41;;;;;;;10.00;7.30;;;;;;;;;;110386;267;42491;-38
2023/09/17 09:24:14;;;;;;;8.50;7.20;;;;;;;;;;110301;267;43258;-37
2023/09/17 09:26:48;;;;;;;8.10;6.90;;;;;;;;;;110332;267;39840;-37
2023/09/17 09:29:22;;;;;;;8.40;6.80;;;;;;;;;;110319;267;39614;-35
2023/09/17 09:31:56;;;;;;;8.60;7.00;;;;;;;;;;110332;267;43945;-37
2023/09/17 09:34:31;;;;;;;8.50;7.10;;;;;;;;;;110314;267;42178;-36
2023/09/17 09:37:08;;;;;;;8.30;6.90;;;;;;;;;;110322;267;39094;-37
2023/09/17 09:39:44;;;;;;;8.40;6.70;;;;;;;;;;110270;267;39602;-36
2023/09/17 09:42:18;;;;;;;9.40;6.90;;;;;;;;;;110276;268;44004;-37
2023/09/17 09:44:53;;;;;;;8.70;6.70;;;;;;;;;;110240;267;41960;-37
2023/09/17 09:47:27;;;;;;;8.10;6.80;;;;;;;;;;110221;268;40408;-37
2023/09/17 09:50:00;;;;;;;8.30;6.70;;;;;;;;;;110312;268;39753;-37
2023/09/17 09:52:37;;;;;;;9.00;6.80;;;;;;;;;;110337;267;42625;-37
2023/09/17 09:55:10;;;;;;;8.50;6.90;;;;;;;;;;110335;268;41997;-38
2023/09/17 09:57:45;;;;;;;8.10;6.70;;;;;;;;;;110335;267;38760;-38
2023/09/17 10:00:26;;;;;;;8.30;6.90;;;;;;;;;;110367;267;39552;-37
2023/09/17 10:02:59;;;;;;;8.50;7.10;;;;;;;;;;110346;268;43101;-37
2023/09/17 10:05:39;;;;;;;8.30;7.20;;;;;;;;;;110325;268;41999;-37
2023/09/17 10:08:18;;;;;;;8.10;6.40;;;;;;;;;;110364;267;39050;-38
2023/09/17 10:10:53;;;;;;;8.70;6.90;;;;;;;;;;110323;267;39890;-37
2023/09/17 10:13:27;;;;;;;9.30;7.60;;;;;;;;;;109673;267;894376;-37
2023/09/17 10:16:02;;;;;;;8.50;7.10;;;;;;;;;;110285;267;42260;-38
2023/09/17 10:18:38;;;;;;;7.50;6.50;;;;;;;;;;110360;267;38908;-37
2023/09/17 10:21:13;;;;;;;8.30;6.80;;;;;;;;;;110340;267;40981;-37
2023/09/17 10:23:48;;;;;;;7.90;6.60;;;;;;;;;;110381;267;42722;-37
2023/09/17 10:26:23;;;;;;;7.80;6.70;;;;;;;;;;110317;267;43197;-37
2023/09/17 10:28:58;;;;;;;8.80;6.90;;;;;;;;;;110363;268;39445;-38
2023/09/17 10:31:32;;;;;;;7.90;6.40;;;;;;;;;;110344;267;39515;-37
2023/09/17 10:34:07;;;;;;;8.10;6.50;;;;;;;;;;110383;267;42875;-38
2023/09/17 10:36:42;;;;;;;7.80;6.60;;;;;;;;;;110329;267;42042;-38
2023/09/17 10:39:21;;;;;;;8.10;6.50;;;;;;;;;;110386;267;38794;-38
2023/09/17 10:41:59;;;;;;;7.50;6.50;;;;;;;;;;110370;268;39602;-36
2023/09/17 10:44:36;;;;;;;8.20;6.20;;;;;;;;;;110358;267;42618;-37
2023/09/17 10:47:12;;;;;;;8.00;6.30;;;;;;;;;;110314;268;43319;-36
2023/09/17 10:49:47;;;;;;;8.00;6.60;;;;;;;;;;110355;267;38659;-37
2023/09/17 10:52:21;;;;;;;7.80;6.60;;;;;;;;;;110351;267;39759;-37
2023/09/17 10:54:55;;;;;;;7.40;6.30;;;;;;;;;;110355;267;42812;-37
2023/09/17 10:57:37;;;;;;;7.50;6.40;;;;;;;;;;110288;268;41976;-37
2023/09/17 11:00:18;;;;;;;7.70;6.40;;;;;;;;;;110322;267;38820;-38
2023/09/17 11:02:57;;;;;;;7.80;6.30;;;;;;;;;;110327;267;39450;-36
2023/09/17 11:05:33;;;;;;;7.60;6.40;;;;;;;;;;110266;267;42737;-36
2023/09/17 11:08:09;;;;;;;7.70;6.70;;;;;;;;;;110314;267;42005;-37
2023/09/17 11:10:45;;;;;;;7.40;6.10;;;;;;;;;;110305;267;39969;-36
2023/09/17 11:13:23;;;;;;;7.90;6.30;;;;;;;;;;110344;267;39819;-36
2023/09/17 11:15:58;;;;;;;7.40;6.60;;;;;;;;;;110323;267;42854;-36
2023/09/17 11:18:32;;;;;;;7.40;6.50;;;;;;;;;;110348;267;42128;-36
2023/09/17 11:21:12;;;;;;;7.50;6.50;;;;;;;;;;110395;267;38680;-36
2023/09/17 11:23:50;;;;;;;7.70;6.10;;;;;;;;;;110347;267;39949;-37
2023/09/17 11:26:28;;;;;;;7.60;6.20;;;;;;;;;;109639;267;892051;-36
2023/09/17 11:29:06;;;;;;;7.70;6.00;;;;;;;;;;110366;267;43283;-36
2023/09/17 11:32:04;;;;;;;7.30;6.00;;;;;;;;;;110423;267;39895;-36
2023/09/17 11:34:42;;;;;;;7.50;6.40;;;;;;;;;;110376;267;40975;-36
2023/09/17 11:37:17;;;;;;;7.40;6.10;;;;;;;;;;110318;267;43123;-37
2023/09/17 11:39:54;;;;;;;8.10;6.20;;;;;;;;;;110376;267;41982;-36
2023/09/17 11:42:28;;;;;;;6.90;6.00;;;;;;;;;;110352;267;38640;-36
2023/09/17 11:45:02;;;;;;;7.40;6.40;;;;;;;;;;110331;267;39900;-36
2023/09/17 11:47:39;;;;;;;7.30;6.20;;;;;;;;;;110312;268;42548;-36
2023/09/17 11:50:16;;;;;;;7.60;6.00;;;;;;;;;;110305;267;43443;-36
2023/09/17 11:53:06;;;;;;;7.00;5.90;;;;;;;;;;110338;267;38674;-37
2023/09/17 11:55:40;;;;;;;7.10;6.00;;;;;;;;;;110341;267;40816;-37
2023/09/17 11:58:19;;;;;;;7.40;6.10;;;;;;;;;;110270;267;84203;-36
2023/09/17 12:00:54;;;;;;;6.80;5.70;;;;;;;;;;110347;267;42460;-36
2023/09/17 12:03:29;;;;;;;7.40;6.30;;;;;;;;;;110403;267;38743;-37
2023/09/17 12:06:04;;;;;;;7.80;6.10;;;;;;;;;;110371;267;39764;-37
2023/09/17 12:08:38;;;;;;;7.10;6.10;;;;;;;;;;110289;267;42919;-36
2023/09/17 12:11:24;;;;;;;6.60;5.60;;;;;;;;;;110358;267;43242;-36
2023/09/17 12:14:01;;;;;;;7.90;6.20;;;;;;;;;;110379;267;38705;-36
2023/09/17 12:16:35;;;;;;;7.10;6.20;;;;;;;;;;110373;267;39710;-36
2023/09/17 12:19:10;;;;;;;7.20;5.90;;;;;;;;;;110362;267;47858;-36
2023/09/17 12:21:55;;;;;;;7.20;6.10;;;;;;;;;;110379;267;43447;-37
2023/09/17 12:24:57;;;;;;;7.60;6.50;;;;;;;;;;110348;267;39957;-36
2023/09/17 12:27:35;;;;;;;;;;;;;;;;;;110349;267;40810;-36
2023/09/17 12:30:11;;;;;;;7.40;6.00;;;;;;;;;;110356;267;42829;-39
2023/09/17 12:32:44;;;;;;;7.10;5.80;;;;;;;;;;110341;267;42016;-39
2023/09/17 12:35:18;;;;;;;7.00;6.00;;;;;;;;;;110310;267;38677;-36
2023/09/17 12:37:57;;;;;;;7.70;6.30;;;;;;;;;;110328;267;39307;-37
2023/09/17 12:40:32;;;;;;;7.90;5.90;;;;;;;;;;110334;267;43933;-37
2023/09/17 12:43:06;;;;;;;6.60;5.50;;;;;;;;;;110407;267;44493;-36
2023/09/17 12:45:43;;;;;;;7.10;5.90;;;;;;;;;;110288;268;175511;-36
2023/09/17 12:48:18;;;;;;;7.10;5.70;;;;;;;;;;110324;267;40893;-36
2023/09/17 12:50:54;;;;;;;6.90;5.70;;;;;;;;;;110385;267;42821;-36
2023/09/17 12:53:28;;;;;;;6.60;5.70;;;;;;;;;;110354;267;42275;-40
2023/09/17 12:56:05;;;;;;;6.50;5.50;;;;;;;;;;110351;267;38742;-36
2023/09/17 12:58:40;;;;;;;6.90;5.90;;;;;;;;;;110318;267;40066;-36
2023/09/17 13:01:16;;;;;;;7.20;5.70;;;;;;;;;;110340;267;43979;-36
2023/09/17 13:03:58;;;;;;;6.80;5.70;;;;;;;;;;110357;267;43260;-36
2023/09/17 13:06:39;;;;;;;7.00;5.80;;;;;;;;;;110372;267;38668;-36
2023/09/17 13:09:12;;;;;;;6.60;5.70;;;;;;;;;;110300;268;39628;-37
2023/09/17 13:11:46;;;;;;;6.70;5.90;;;;;;;;;;110304;268;42885;-36
2023/09/17 13:14:24;;;;;;;6.80;5.80;;;;;;;;;;110344;267;42006;-37
2023/09/17 13:17:02;;;;;;;7.10;5.60;;;;;;;;;;110333;267;40087;-37
2023/09/17 13:19:36;;;;;;;7.40;5.80;;;;;;;;;;110306;267;39569;-37
2023/09/17 13:22:11;;;;;;;6.80;5.60;;;;;;;;;;110302;267;42886;-37
2023/09/17 13:24:45;;;;;;;7.10;5.70;;;;;;;;;;110346;267;42137;-37
2023/09/17 13:27:21;;;;;;;7.50;5.80;;;;;;;;;;110376;267;38876;-37
2023/09/17 13:29:57;;;;;;;6.90;5.70;;;;;;;;;;110327;267;39734;-37
2023/09/17 13:32:31;;;;;;;6.80;5.70;;;;;;;;;;110305;267;42764;-37
2023/09/17 13:35:10;;;;;;;7.40;5.50;;;;;;;;;;110283;267;42178;-37
2023/09/17 13:37:44;;;;;;;6.80;5.30;;;;;;;;;;110320;268;38654;-37
2023/09/17 13:40:21;;;;;;;6.40;5.00;;;;;;;;;;110265;267;39593;-37
2023/09/17 13:42:56;;;;;;;6.20;5.40;;;;;;;;;;110286;268;42712;-37
2023/09/17 13:45:33;;;;;;;6.80;5.20;;;;;;;;;;110283;268;41928;-37
2023/09/17 13:48:08;;;;;;;6.60;5.30;;;;;;;;;;110320;267;38808;-37
2023/09/17 13:50:44;;;;;;;6.20;5.00;;;;;;;;;;110304;267;39320;-39
2023/09/17 13:53:19;;;;;;;6.40;5.10;;;;;;;;;;110294;268;42830;-37
2023/09/17 13:55:55;;;;;;;6.20;5.20;;;;;;;;;;110288;268;41985;-36
2023/09/17 13:58:31;;;;;;;6.30;5.30;;;;;;;;;;110346;268;38851;-37
2023/09/17 14:01:06;;;;;;;7.10;5.20;;;;;;;;;;110130;267;175516;-37
2023/09/17 14:03:40;;;;;;;6.10;5.10;;;;;;;;;;110354;267;43033;-37
2023/09/17 14:06:14;;;;;;;6.50;5.10;;;;;;;;;;110316;268;43295;-36
2023/09/17 14:08:51;;;;;;;6.60;5.40;;;;;;;;;;110361;268;39221;-37
2023/09/17 14:11:28;;;;;;;6.40;5.20;;;;;;;;;;110440;267;46312;-37
2023/09/17 14:14:01;;;;;;;6.40;5.00;;;;;;;;;;110336;267;44117;-37
2023/09/17 14:16:38;;;;;;;6.30;5.20;;;;;;;;;;110332;267;41864;-37
2023/09/17 14:19:17;;;;;;;6.20;4.80;;;;;;;;;;110348;267;38807;-37
2023/09/17 14:21:52;;;;;;;6.00;4.90;;;;;;;;;;110416;267;46013;-38
2023/09/17 14:24:27;;;;;;;6.10;4.80;;;;;;;;;;110308;267;42934;-37
2023/09/17 14:27:01;;;;;;;6.50;4.80;;;;;;;;;;110335;267;41982;-37
2023/09/17 14:29:40;;;;;;;6.10;5.00;;;;;;;;;;110346;267;38501;-37
2023/09/17 14:32:19;;;;;;;5.70;4.70;;;;;;;;;;110296;268;45244;-37
2023/09/17 14:34:55;;;;;;;6.70;5.10;;;;;;;;;;110332;268;43125;-38
2023/09/17 14:37:30;;;;;;;6.20;4.90;;;;;;;;;;110324;267;41912;-37
2023/09/17 14:40:11;;;;;;;5.90;4.80;;;;;;;;;;110283;267;38835;-37
2023/09/17 14:42:45;;;;;;;6.20;4.90;;;;;;;;;;110292;267;45856;-37
2023/09/17 14:45:21;;;;;;;5.90;4.60;;;;;;;;;;110318;267;42961;-37
2023/09/17 14:47:55;;;;;;;5.80;4.80;;;;;;;;;;110334;267;42173;-37
2023/09/17 14:50:28;;;;;;;6.30;4.80;;;;;;;;;;110305;267;38671;-37
2023/09/17 14:53:05;;;;;;;6.10;5.10;;;;;;;;;;110346;267;46974;-37
2023/09/17 14:55:40;;;;;;;6.50;5.30;;;;;;;;;;110333;267;44163;-37
2023/09/17 14:58:16;;;;;;;6.00;4.90;;;;;;;;;;110313;267;43401;-37
2023/09/17 15:00:51;;;;;;;6.10;4.90;;;;;;;;;;110316;267;38721;-37
2023/09/17 15:03:28;;;;;;;6.10;5.00;;;;;;;;;;110324;267;39692;-37
2023/09/17 15:06:03;;;;;;;6.00;4.90;;;;;;;;;;110335;267;43113;-37
2023/09/17 15:08:37;;;;;;;6.20;5.00;;;;;;;;;;110328;267;44148;-37
2023/09/17 15:11:13;;;;;;;6.20;5.00;;;;;;;;;;110279;268;38835;-38
2023/09/17 15:13:47;;;;;;;5.90;5.10;;;;;;;;;;110325;267;40854;-37
2023/09/17 15:16:23;;;;;;;6.10;5.00;;;;;;;;;;110295;267;42767;-38
2023/09/17 15:19:00;;;;;;;6.50;5.50;;;;;;;;;;110302;268;42214;-38
2023/09/17 15:21:35;;;;;;;6.60;5.50;;;;;;;;;;110180;268;175527;-37
2023/09/17 15:24:10;;;;;;;6.10;5.20;;;;;;;;;;110326;267;39494;-37
2023/09/17 15:26:45;;;;;;;7.30;5.60;;;;;;;;;;110329;268;43073;-37
2023/09/17 15:29:23;;;;;;;6.80;5.80;;;;;;;;;;110336;267;42357;-37
2023/09/17 15:31:58;;;;;;;7.30;6.20;;;;;;;;;;110304;268;38685;-37